sensor_id;sensor_type;location;lat;lon;timestamp;P1;durP1;ratioP1;P2;durP2;ratioP2
12367;SDS011;6248;49.812;6.620;2023-09-19T00:02:08;3.22;;;2.25;;
12367;SDS011;6248;49.812;6.620;2023-09-19T00:04:39;3.70;;;2.40;;
12367;SDS011;6248;49.812;6.620;2023-09-19T00:07:07;5.05;;;2.28;;
12367;SDS011;6248;49.812;6.620;2023-09-19T00:09:35;3.10;;;2.25;;
12367;SDS011;6248;49.812;6.620;2023-09-19T00:12:03;2.50;;;2.30;;
12367;SDS011;6248;49.812;6.620;2023-09-19T00:14:30;2.95;;;2.30;;
12367;SDS011;6248;49.812;6.620;2023-09-19T00:16:59;6.80;;;2.47;;
12367;SDS011;6248;49.812;6.620;2023-09-19T00:19:30;4.93;;;2.08;;
12367;SDS011;6248;49.812;6.620;2023-09-19T00:22:00;5.55;;;2.63;;
12367;SDS011;6248;49.812;6.620;2023-09-19T00:24:27;3.78;;;1.90;;
12367;SDS011;6248;49.812;6.620;2023-09-19T00:26:55;6.75;;;2.10;;
12367;SDS011;6248;49.812;6.620;2023-09-19T00:29:24;2.80;;;2.05;;
12367;SDS011;6248;49.812;6.620;2023-09-19T00:31:54;5.35;;;2.15;;
12367;SDS011;6248;49.812;6.620;2023-09-19T00:34:22;3.00;;;2.10;;
12367;SDS011;6248;49.812;6.620;2023-09-19T00:36:50;4.68;;;2.28;;
12367;SDS011;6248;49.812;6.620;2023-09-19T00:39:21;5.00;;;2.03;;
12367;SDS011;6248;49.812;6.620;2023-09-19T00:41:50;2.88;;;2.20;;
12367;SDS011;6248;49.812;6.620;2023-09-19T00:44:18;4.70;;;2.25;;
12367;SDS011;6248;49.812;6.620;2023-09-19T00:46:48;3.35;;;2.13;;
12367;SDS011;6248;49.812;6.620;2023-09-19T00:49:15;3.28;;;2.08;;
12367;SDS011;6248;49.812;6.620;2023-09-19T00:51:45;4.85;;;1.98;;
12367;SDS011;6248;49.812;6.620;2023-09-19T00:54:13;3.10;;;1.92;;
12367;SDS011;6248;49.812;6.620;2023-09-19T00:56:44;3.75;;;2.10;;
12367;SDS011;6248;49.812;6.620;2023-09-19T00:59:14;6.38;;;2.08;;
12367;SDS011;6248;49.812;6.620;2023-09-19T01:01:41;4.47;;;2.03;;
12367;SDS011;6248;49.812;6.620;2023-09-19T01:04:10;5.80;;;2.00;;
12367;SDS011;6248;49.812;6.620;2023-09-19T01:06:38;4.40;;;2.22;;
12367;SDS011;6248;49.812;6.620;2023-09-19T01:09:05;8.18;;;2.42;;
12367;SDS011;6248;49.812;6.620;2023-09-19T01:11:37;4.15;;;2.08;;
12367;SDS011;6248;49.812;6.620;2023-09-19T01:14:13;4.88;;;2.38;;
12367;SDS011;6248;49.812;6.620;2023-09-19T01:16:44;4.90;;;2.47;;
12367;SDS011;6248;49.812;6.620;2023-09-19T01:22:05;3.95;;;2.20;;
12367;SDS011;6248;49.812;6.620;2023-09-19T01:24:44;4.32;;;2.40;;
12367;SDS011;6248;49.812;6.620;2023-09-19T01:27:33;4.20;;;2.38;;
12367;SDS011;6248;49.812;6.620;2023-09-19T01:30:09;4.50;;;2.40;;
12367;SDS011;6248;49.812;6.620;2023-09-19T01:32:36;7.63;;;2.65;;
12367;SDS011;6248;49.812;6.620;2023-09-19T01:35:04;4.35;;;2.55;;
12367;SDS011;6248;49.812;6.620;2023-09-19T01:37:31;5.05;;;2.50;;
12367;SDS011;6248;49.812;6.620;2023-09-19T01:39:59;5.72;;;2.58;;
12367;SDS011;6248;49.812;6.620;2023-09-19T01:42:37;6.18;;;2.38;;
12367;SDS011;6248;49.812;6.620;2023-09-19T01:45:11;8.90;;;2.55;;
12367;SDS011;6248;49.812;6.620;2023-09-19T01:47:41;6.28;;;2.53;;
12367;SDS011;6248;49.812;6.620;2023-09-19T01:50:12;6.68;;;2.40;;
12367;SDS011;6248;49.812;6.620;2023-09-19T01:52:45;6.18;;;2.10;;
12367;SDS011;6248;49.812;6.620;2023-09-19T01:55:14;4.78;;;2.25;;
12367;SDS011;6248;49.812;6.620;2023-09-19T01:57:46;3.80;;;2.40;;
12367;SDS011;6248;49.812;6.620;2023-09-19T02:00:18;4.63;;;2.35;;
12367;SDS011;6248;49.812;6.620;2023-09-19T02:02:47;3.17;;;2.22;;
12367;SDS011;6248;49.812;6.620;2023-09-19T02:05:21;5.05;;;2.25;;
12367;SDS011;6248;49.812;6.620;2023-09-19T02:07:49;3.47;;;2.10;;
12367;SDS011;6248;49.812;6.620;2023-09-19T02:10:16;4.40;;;2.17;;
12367;SDS011;6248;49.812;6.620;2023-09-19T02:12:43;4.43;;;2.20;;
12367;SDS011;6248;49.812;6.620;2023-09-19T02:15:11;6.10;;;2.47;;
12367;SDS011;6248;49.812;6.620;2023-09-19T02:17:40;5.63;;;2.70;;
12367;SDS011;6248;49.812;6.620;2023-09-19T02:20:08;4.70;;;2.10;;
12367;SDS011;6248;49.812;6.620;2023-09-19T02:22:35;4.00;;;2.20;;
12367;SDS011;6248;49.812;6.620;2023-09-19T02:25:04;5.80;;;2.38;;
12367;SDS011;6248;49.812;6.620;2023-09-19T02:27:32;6.22;;;2.67;;
12367;SDS011;6248;49.812;6.620;2023-09-19T02:29:59;3.10;;;2.13;;
12367;SDS011;6248;49.812;6.620;2023-09-19T02:32:29;7.32;;;2.72;;
12367;SDS011;6248;49.812;6.620;2023-09-19T02:34:58;5.55;;;2.75;;
12367;SDS011;6248;49.812;6.620;2023-09-19T02:37:25;6.43;;;2.40;;
12367;SDS011;6248;49.812;6.620;2023-09-19T02:39:52;2.97;;;2.10;;
12367;SDS011;6248;49.812;6.620;2023-09-19T02:42:21;6.18;;;2.20;;
12367;SDS011;6248;49.812;6.620;2023-09-19T02:44:48;6.18;;;2.33;;
12367;SDS011;6248;49.812;6.620;2023-09-19T02:47:15;5.28;;;2.28;;
12367;SDS011;6248;49.812;6.620;2023-09-19T02:49:43;6.35;;;2.63;;
12367;SDS011;6248;49.812;6.620;2023-09-19T02:52:11;5.68;;;2.70;;
12367;SDS011;6248;49.812;6.620;2023-09-19T02:54:39;4.30;;;2.60;;
12367;SDS011;6248;49.812;6.620;2023-09-19T02:57:10;5.25;;;2.47;;
12367;SDS011;6248;49.812;6.620;2023-09-19T02:59:39;7.60;;;2.55;;
12367;SDS011;6248;49.812;6.620;2023-09-19T03:02:07;6.38;;;2.67;;
12367;SDS011;6248;49.812;6.620;2023-09-19T03:04:34;7.50;;;2.47;;
12367;SDS011;6248;49.812;6.620;2023-09-19T03:07:02;4.88;;;2.50;;
12367;SDS011;6248;49.812;6.620;2023-09-19T03:09:30;5.03;;;2.25;;
12367;SDS011;6248;49.812;6.620;2023-09-19T03:11:58;3.63;;;2.20;;
12367;SDS011;6248;49.812;6.620;2023-09-19T03:14:25;6.15;;;2.50;;
12367;SDS011;6248;49.812;6.620;2023-09-19T03:16:55;6.65;;;2.45;;
12367;SDS011;6248;49.812;6.620;2023-09-19T03:19:22;6.70;;;2.50;;
12367;SDS011;6248;49.812;6.620;2023-09-19T03:21:51;6.25;;;2.10;;
12367;SDS011;6248;49.812;6.620;2023-09-19T03:24:18;7.05;;;2.15;;
12367;SDS011;6248;49.812;6.620;2023-09-19T03:26:47;7.35;;;2.53;;
12367;SDS011;6248;49.812;6.620;2023-09-19T03:29:14;3.10;;;1.75;;
12367;SDS011;6248;49.812;6.620;2023-09-19T03:31:42;5.35;;;2.30;;
12367;SDS011;6248;49.812;6.620;2023-09-19T03:34:10;4.75;;;2.40;;
12367;SDS011;6248;49.812;6.620;2023-09-19T03:36:38;9.20;;;2.17;;
12367;SDS011;6248;49.812;6.620;2023-09-19T03:39:05;5.75;;;2.03;;
12367;SDS011;6248;49.812;6.620;2023-09-19T03:41:33;4.32;;;1.90;;
12367;SDS011;6248;49.812;6.620;2023-09-19T03:44:03;7.57;;;2.38;;
12367;SDS011;6248;49.812;6.620;2023-09-19T03:46:30;9.85;;;2.33;;
12367;SDS011;6248;49.812;6.620;2023-09-19T03:48:57;8.25;;;2.40;;
12367;SDS011;6248;49.812;6.620;2023-09-19T03:51:25;3.30;;;1.90;;
12367;SDS011;6248;49.812;6.620;2023-09-19T03:53:52;7.70;;;2.65;;
12367;SDS011;6248;49.812;6.620;2023-09-19T03:56:19;5.53;;;2.42;;
12367;SDS011;6248;49.812;6.620;2023-09-19T03:58:46;7.40;;;2.35;;
12367;SDS011;6248;49.812;6.620;2023-09-19T04:01:15;5.53;;;2.28;;
12367;SDS011;6248;49.812;6.620;2023-09-19T04:03:43;5.22;;;2.58;;
12367;SDS011;6248;49.812;6.620;2023-09-19T04:06:13;7.03;;;2.50;;
12367;SDS011;6248;49.812;6.620;2023-09-19T04:08:41;6.63;;;2.22;;
12367;SDS011;6248;49.812;6.620;2023-09-19T04:11:09;5.60;;;2.42;;
12367;SDS011;6248;49.812;6.620;2023-09-19T04:13:36;6.97;;;2.05;;
12367;SDS011;6248;49.812;6.620;2023-09-19T04:16:03;5.30;;;2.15;;
12367;SDS011;6248;49.812;6.620;2023-09-19T04:18:33;5.50;;;2.10;;
12367;SDS011;6248;49.812;6.620;2023-09-19T04:21:03;6.93;;;2.20;;
12367;SDS011;6248;49.812;6.620;2023-09-19T04:23:30;4.78;;;2.08;;
12367;SDS011;6248;49.812;6.620;2023-09-19T04:25:58;4.90;;;2.03;;
12367;SDS011;6248;49.812;6.620;2023-09-19T04:28:25;9.20;;;2.50;;
12367;SDS011;6248;49.812;6.620;2023-09-19T04:30:53;6.50;;;2.60;;
12367;SDS011;6248;49.812;6.620;2023-09-19T04:33:20;4.32;;;2.22;;
12367;SDS011;6248;49.812;6.620;2023-09-19T04:35:50;6.63;;;2.10;;
12367;SDS011;6248;49.812;6.620;2023-09-19T04:38:20;3.28;;;2.05;;
12367;SDS011;6248;49.812;6.620;2023-09-19T04:40:48;9.50;;;2.55;;
12367;SDS011;6248;49.812;6.620;2023-09-19T04:43:15;6.35;;;2.30;;
12367;SDS011;6248;49.812;6.620;2023-09-19T04:45:42;6.80;;;2.40;;
12367;SDS011;6248;49.812;6.620;2023-09-19T04:48:09;8.93;;;2.58;;
12367;SDS011;6248;49.812;6.620;2023-09-19T04:50:37;4.38;;;2.38;;
12367;SDS011;6248;49.812;6.620;2023-09-19T04:53:07;4.68;;;2.38;;
12367;SDS011;6248;49.812;6.620;2023-09-19T04:55:34;6.15;;;2.35;;
12367;SDS011;6248;49.812;6.620;2023-09-19T04:58:02;6.78;;;2.25;;
12367;SDS011;6248;49.812;6.620;2023-09-19T05:00:29;5.43;;;2.22;;
12367;SDS011;6248;49.812;6.620;2023-09-19T05:03:00;5.50;;;2.15;;
12367;SDS011;6248;49.812;6.620;2023-09-19T05:05:28;5.90;;;2.30;;
12367;SDS011;6248;49.812;6.620;2023-09-19T05:07:56;5.90;;;2.25;;
12367;SDS011;6248;49.812;6.620;2023-09-19T05:10:25;6.50;;;2.33;;
12367;SDS011;6248;49.812;6.620;2023-09-19T05:12:53;5.10;;;1.98;;
12367;SDS011;6248;49.812;6.620;2023-09-19T05:15:19;7.07;;;2.42;;
12367;SDS011;6248;49.812;6.620;2023-09-19T05:17:49;6.38;;;2.53;;
12367;SDS011;6248;49.812;6.620;2023-09-19T05:20:17;6.25;;;2.80;;
12367;SDS011;6248;49.812;6.620;2023-09-19T05:22:50;4.53;;;2.22;;
12367;SDS011;6248;49.812;6.620;2023-09-19T05:25:17;5.47;;;2.28;;
12367;SDS011;6248;49.812;6.620;2023-09-19T05:27:46;3.78;;;2.30;;
12367;SDS011;6248;49.812;6.620;2023-09-19T05:30:15;6.78;;;2.22;;
12367;SDS011;6248;49.812;6.620;2023-09-19T05:32:43;4.28;;;2.30;;
12367;SDS011;6248;49.812;6.620;2023-09-19T05:35:10;7.82;;;2.28;;
12367;SDS011;6248;49.812;6.620;2023-09-19T05:37:38;7.82;;;2.70;;
12367;SDS011;6248;49.812;6.620;2023-09-19T05:40:05;6.40;;;2.55;;
12367;SDS011;6248;49.812;6.620;2023-09-19T05:42:35;7.63;;;2.28;;
12367;SDS011;6248;49.812;6.620;2023-09-19T05:45:06;10.38;;;2.60;;
12367;SDS011;6248;49.812;6.620;2023-09-19T05:47:33;8.30;;;2.53;;
12367;SDS011;6248;49.812;6.620;2023-09-19T05:50:00;5.97;;;2.33;;
12367;SDS011;6248;49.812;6.620;2023-09-19T05:52:28;10.25;;;2.60;;
12367;SDS011;6248;49.812;6.620;2023-09-19T05:54:57;5.75;;;2.20;;
12367;SDS011;6248;49.812;6.620;2023-09-19T05:57:25;6.32;;;2.63;;
12367;SDS011;6248;49.812;6.620;2023-09-19T05:59:52;6.88;;;2.38;;
12367;SDS011;6248;49.812;6.620;2023-09-19T06:02:21;6.47;;;2.30;;
12367;SDS011;6248;49.812;6.620;2023-09-19T06:04:48;5.93;;;2.38;;
12367;SDS011;6248;49.812;6.620;2023-09-19T06:07:18;6.40;;;2.25;;
12367;SDS011;6248;49.812;6.620;2023-09-19T06:09:47;10.52;;;2.58;;
12367;SDS011;6248;49.812;6.620;2023-09-19T06:12:14;9.63;;;2.53;;
12367;SDS011;6248;49.812;6.620;2023-09-19T06:14:42;7.22;;;2.60;;
12367;SDS011;6248;49.812;6.620;2023-09-19T06:17:09;8.65;;;2.65;;
12367;SDS011;6248;49.812;6.620;2023-09-19T06:19:37;5.50;;;2.22;;
12367;SDS011;6248;49.812;6.620;2023-09-19T06:22:05;13.00;;;3.05;;
12367;SDS011;6248;49.812;6.620;2023-09-19T06:24:32;14.07;;;2.85;;
12367;SDS011;6248;49.812;6.620;2023-09-19T06:26:59;9.27;;;2.60;;
12367;SDS011;6248;49.812;6.620;2023-09-19T06:29:27;7.25;;;2.40;;
12367;SDS011;6248;49.812;6.620;2023-09-19T06:31:54;8.23;;;2.80;;
12367;SDS011;6248;49.812;6.620;2023-09-19T06:34:21;7.43;;;2.30;;
12367;SDS011;6248;49.812;6.620;2023-09-19T06:36:51;13.30;;;3.20;;
12367;SDS011;6248;49.812;6.620;2023-09-19T06:39:20;10.07;;;2.45;;
12367;SDS011;6248;49.812;6.620;2023-09-19T06:41:48;6.50;;;2.55;;
12367;SDS011;6248;49.812;6.620;2023-09-19T06:44:16;11.63;;;2.28;;
12367;SDS011;6248;49.812;6.620;2023-09-19T06:46:43;6.57;;;2.33;;
12367;SDS011;6248;49.812;6.620;2023-09-19T06:49:11;10.00;;;2.75;;
12367;SDS011;6248;49.812;6.620;2023-09-19T06:51:40;12.70;;;2.22;;
12367;SDS011;6248;49.812;6.620;2023-09-19T06:54:10;9.07;;;3.13;;
12367;SDS011;6248;49.812;6.620;2023-09-19T06:56:37;10.00;;;2.83;;
12367;SDS011;6248;49.812;6.620;2023-09-19T06:59:06;6.65;;;2.53;;
12367;SDS011;6248;49.812;6.620;2023-09-19T07:01:33;8.52;;;2.60;;
12367;SDS011;6248;49.812;6.620;2023-09-19T07:04:02;8.10;;;2.40;;
12367;SDS011;6248;49.812;6.620;2023-09-19T07:06:30;9.15;;;2.55;;
12367;SDS011;6248;49.812;6.620;2023-09-19T07:08:58;9.48;;;2.58;;
12367;SDS011;6248;49.812;6.620;2023-09-19T07:11:27;9.50;;;2.38;;
12367;SDS011;6248;49.812;6.620;2023-09-19T07:13:55;11.30;;;2.70;;
12367;SDS011;6248;49.812;6.620;2023-09-19T07:16:23;12.40;;;2.38;;
12367;SDS011;6248;49.812;6.620;2023-09-19T07:18:55;7.93;;;2.42;;
12367;SDS011;6248;49.812;6.620;2023-09-19T07:21:22;10.30;;;2.40;;
12367;SDS011;6248;49.812;6.620;2023-09-19T07:23:50;11.70;;;2.42;;
12367;SDS011;6248;49.812;6.620;2023-09-19T07:26:17;10.35;;;2.85;;
12367;SDS011;6248;49.812;6.620;2023-09-19T07:28:46;10.30;;;2.47;;
12367;SDS011;6248;49.812;6.620;2023-09-19T07:31:13;7.85;;;2.60;;
12367;SDS011;6248;49.812;6.620;2023-09-19T07:33:40;7.72;;;2.20;;
12367;SDS011;6248;49.812;6.620;2023-09-19T07:36:09;8.52;;;2.47;;
12367;SDS011;6248;49.812;6.620;2023-09-19T07:38:38;9.43;;;2.63;;
12367;SDS011;6248;49.812;6.620;2023-09-19T07:41:05;9.55;;;2.85;;
12367;SDS011;6248;49.812;6.620;2023-09-19T07:43:34;13.60;;;3.00;;
12367;SDS011;6248;49.812;6.620;2023-09-19T07:46:05;8.07;;;2.70;;
12367;SDS011;6248;49.812;6.620;2023-09-19T07:48:33;8.75;;;2.72;;
12367;SDS011;6248;49.812;6.620;2023-09-19T07:51:03;10.00;;;2.85;;
12367;SDS011;6248;49.812;6.620;2023-09-19T07:53:31;7.38;;;2.50;;
12367;SDS011;6248;49.812;6.620;2023-09-19T07:56:02;9.25;;;2.83;;
12367;SDS011;6248;49.812;6.620;2023-09-19T07:58:29;11.18;;;2.85;;
12367;SDS011;6248;49.812;6.620;2023-09-19T08:01:01;8.45;;;2.30;;
12367;SDS011;6248;49.812;6.620;2023-09-19T08:03:30;6.90;;;2.38;;
12367;SDS011;6248;49.812;6.620;2023-09-19T08:05:57;6.50;;;2.30;;
12367;SDS011;6248;49.812;6.620;2023-09-19T08:08:24;6.85;;;2.40;;
12367;SDS011;6248;49.812;6.620;2023-09-19T08:10:55;10.90;;;2.67;;
12367;SDS011;6248;49.812;6.620;2023-09-19T08:13:22;7.20;;;2.60;;
12367;SDS011;6248;49.812;6.620;2023-09-19T08:15:49;11.45;;;2.80;;
12367;SDS011;6248;49.812;6.620;2023-09-19T08:18:17;6.88;;;2.10;;
12367;SDS011;6248;49.812;6.620;2023-09-19T08:20:50;6.60;;;2.03;;
12367;SDS011;6248;49.812;6.620;2023-09-19T08:23:17;9.43;;;2.60;;
12367;SDS011;6248;49.812;6.620;2023-09-19T08:25:45;6.82;;;2.28;;
12367;SDS011;6248;49.812;6.620;2023-09-19T08:28:12;6.10;;;2.10;;
12367;SDS011;6248;49.812;6.620;2023-09-19T08:30:45;6.97;;;2.20;;
12367;SDS011;6248;49.812;6.620;2023-09-19T08:33:12;7.05;;;2.00;;
12367;SDS011;6248;49.812;6.620;2023-09-19T08:35:40;5.63;;;2.10;;
12367;SDS011;6248;49.812;6.620;2023-09-19T08:38:08;7.75;;;2.40;;
12367;SDS011;6248;49.812;6.620;2023-09-19T08:40:36;7.45;;;2.30;;
12367;SDS011;6248;49.812;6.620;2023-09-19T08:43:04;7.10;;;2.40;;
12367;SDS011;6248;49.812;6.620;2023-09-19T08:45:32;10.38;;;2.00;;
12367;SDS011;6248;49.812;6.620;2023-09-19T08:48:02;6.80;;;2.03;;
12367;SDS011;6248;49.812;6.620;2023-09-19T08:50:32;8.50;;;2.50;;
12367;SDS011;6248;49.812;6.620;2023-09-19T08:53:01;6.63;;;2.03;;
12367;SDS011;6248;49.812;6.620;2023-09-19T08:55:29;6.43;;;2.35;;
12367;SDS011;6248;49.812;6.620;2023-09-19T08:57:59;7.78;;;1.90;;
12367;SDS011;6248;49.812;6.620;2023-09-19T09:00:27;6.50;;;2.10;;
12367;SDS011;6248;49.812;6.620;2023-09-19T09:02:55;7.47;;;2.08;;
12367;SDS011;6248;49.812;6.620;2023-09-19T09:05:22;5.88;;;1.83;;
12367;SDS011;6248;49.812;6.620;2023-09-19T09:07:51;10.02;;;2.55;;
12367;SDS011;6248;49.812;6.620;2023-09-19T09:10:21;6.60;;;2.28;;
12367;SDS011;6248;49.812;6.620;2023-09-19T09:12:49;5.38;;;1.90;;
12367;SDS011;6248;49.812;6.620;2023-09-19T09:15:18;6.00;;;1.83;;
12367;SDS011;6248;49.812;6.620;2023-09-19T09:17:48;8.48;;;2.10;;
12367;SDS011;6248;49.812;6.620;2023-09-19T09:20:15;6.95;;;2.00;;
12367;SDS011;6248;49.812;6.620;2023-09-19T09:22:50;6.28;;;2.00;;
12367;SDS011;6248;49.812;6.620;2023-09-19T09:25:18;9.02;;;2.13;;
12367;SDS011;6248;49.812;6.620;2023-09-19T09:27:56;6.35;;;2.38;;
12367;SDS011;6248;49.812;6.620;2023-09-19T09:30:32;6.13;;;2.13;;
12367;SDS011;6248;49.812;6.620;2023-09-19T09:33:07;5.70;;;2.03;;
12367;SDS011;6248;49.812;6.620;2023-09-19T09:35:35;6.80;;;2.00;;
12367;SDS011;6248;49.812;6.620;2023-09-19T09:38:04;9.90;;;2.60;;
12367;SDS011;6248;49.812;6.620;2023-09-19T09:40:45;5.38;;;2.03;;
12367;SDS011;6248;49.812;6.620;2023-09-19T09:43:25;7.45;;;2.03;;
12367;SDS011;6248;49.812;6.620;2023-09-19T09:46:06;8.27;;;1.83;;
12367;SDS011;6248;49.812;6.620;2023-09-19T09:48:58;6.25;;;2.00;;
12367;SDS011;6248;49.812;6.620;2023-09-19T09:51:43;6.53;;;1.92;;
12367;SDS011;6248;49.812;6.620;2023-09-19T09:54:12;5.97;;;2.35;;
12367;SDS011;6248;49.812;6.620;2023-09-19T09:56:53;5.95;;;2.00;;
12367;SDS011;6248;49.812;6.620;2023-09-19T09:59:27;6.57;;;1.90;;
12367;SDS011;6248;49.812;6.620;2023-09-19T10:02:12;6.90;;;2.30;;
12367;SDS011;6248;49.812;6.620;2023-09-19T10:04:45;8.55;;;2.10;;
12367;SDS011;6248;49.812;6.620;2023-09-19T10:07:27;7.35;;;1.90;;
12367;SDS011;6248;49.812;6.620;2023-09-19T10:09:59;4.32;;;1.80;;
12367;SDS011;6248;49.812;6.620;2023-09-19T10:12:34;6.03;;;1.98;;
12367;SDS011;6248;49.812;6.620;2023-09-19T10:15:05;8.10;;;2.10;;
12367;SDS011;6248;49.812;6.620;2023-09-19T10:17:35;7.38;;;1.92;;
12367;SDS011;6248;49.812;6.620;2023-09-19T10:20:03;7.07;;;2.20;;
12367;SDS011;6248;49.812;6.620;2023-09-19T10:22:42;6.20;;;2.00;;
12367;SDS011;6248;49.812;6.620;2023-09-19T10:25:10;5.55;;;2.10;;
12367;SDS011;6248;49.812;6.620;2023-09-19T10:27:38;5.85;;;1.80;;
12367;SDS011;6248;49.812;6.620;2023-09-19T10:30:09;6.13;;;1.60;;
12367;SDS011;6248;49.812;6.620;2023-09-19T10:32:38;3.22;;;1.77;;
12367;SDS011;6248;49.812;6.620;2023-09-19T10:35:07;6.82;;;2.35;;
12367;SDS011;6248;49.812;6.620;2023-09-19T10:37:34;3.50;;;1.90;;
12367;SDS011;6248;49.812;6.620;2023-09-19T10:40:03;5.15;;;1.92;;
12367;SDS011;6248;49.812;6.620;2023-09-19T10:42:33;3.10;;;1.65;;
12367;SDS011;6248;49.812;6.620;2023-09-19T10:45:05;4.70;;;1.58;;
12367;SDS011;6248;49.812;6.620;2023-09-19T10:47:39;5.57;;;1.92;;
12367;SDS011;6248;49.812;6.620;2023-09-19T10:50:08;5.00;;;1.75;;
12367;SDS011;6248;49.812;6.620;2023-09-19T10:52:39;7.63;;;1.70;;
12367;SDS011;6248;49.812;6.620;2023-09-19T10:55:08;6.15;;;1.80;;
12367;SDS011;6248;49.812;6.620;2023-09-19T10:57:36;5.60;;;2.00;;
12367;SDS011;6248;49.812;6.620;2023-09-19T11:00:04;4.63;;;2.00;;
12367;SDS011;6248;49.812;6.620;2023-09-19T11:05:33;3.45;;;1.60;;
12367;SDS011;6248;49.812;6.620;2023-09-19T11:08:05;4.40;;;1.60;;
12367;SDS011;6248;49.812;6.620;2023-09-19T11:10:45;7.68;;;2.08;;
12367;SDS011;6248;49.812;6.620;2023-09-19T11:13:26;4.18;;;1.50;;
12367;SDS011;6248;49.812;6.620;2023-09-19T11:18:50;2.75;;;1.50;;
12367;SDS011;6248;49.812;6.620;2023-09-19T11:24:28;3.78;;;1.67;;
12367;SDS011;6248;49.812;6.620;2023-09-19T11:27:08;2.97;;;1.60;;
12367;SDS011;6248;49.812;6.620;2023-09-19T11:29:36;5.07;;;1.40;;
12367;SDS011;6248;49.812;6.620;2023-09-19T11:32:04;2.00;;;1.30;;
12367;SDS011;6248;49.812;6.620;2023-09-19T11:34:41;4.53;;;1.48;;
12367;SDS011;6248;49.812;6.620;2023-09-19T11:40:07;5.88;;;1.60;;
12367;SDS011;6248;49.812;6.620;2023-09-19T11:42:41;4.10;;;1.35;;
12367;SDS011;6248;49.812;6.620;2023-09-19T11:47:51;4.63;;;1.58;;
12367;SDS011;6248;49.812;6.620;2023-09-19T11:50:18;4.25;;;1.55;;
12367;SDS011;6248;49.812;6.620;2023-09-19T11:52:46;4.10;;;1.65;;
12367;SDS011;6248;49.812;6.620;2023-09-19T11:55:15;2.95;;;1.55;;
12367;SDS011;6248;49.812;6.620;2023-09-19T11:57:46;3.60;;;1.25;;
12367;SDS011;6248;49.812;6.620;2023-09-19T12:00:17;5.68;;;1.67;;
12367;SDS011;6248;49.812;6.620;2023-09-19T12:02:45;4.22;;;1.60;;
12367;SDS011;6248;49.812;6.620;2023-09-19T12:05:13;4.70;;;1.40;;
12367;SDS011;6248;49.812;6.620;2023-09-19T12:07:42;4.03;;;1.42;;
12367;SDS011;6248;49.812;6.620;2023-09-19T12:10:11;4.75;;;1.50;;
12367;SDS011;6248;49.812;6.620;2023-09-19T12:12:45;3.08;;;1.38;;
12367;SDS011;6248;49.812;6.620;2023-09-19T12:15:14;3.75;;;1.40;;
12367;SDS011;6248;49.812;6.620;2023-09-19T12:17:41;4.25;;;1.60;;
12367;SDS011;6248;49.812;6.620;2023-09-19T12:20:09;5.30;;;1.50;;
12367;SDS011;6248;49.812;6.620;2023-09-19T12:22:40;3.90;;;1.70;;
12367;SDS011;6248;49.812;6.620;2023-09-19T12:25:08;3.75;;;1.80;;
12367;SDS011;6248;49.812;6.620;2023-09-19T12:27:41;3.45;;;1.52;;
12367;SDS011;6248;49.812;6.620;2023-09-19T12:30:11;3.25;;;1.48;;
12367;SDS011;6248;49.812;6.620;2023-09-19T12:32:39;4.68;;;1.58;;
12367;SDS011;6248;49.812;6.620;2023-09-19T12:35:07;4.95;;;1.92;;
12367;SDS011;6248;49.812;6.620;2023-09-19T12:37:36;4.57;;;1.48;;
12367;SDS011;6248;49.812;6.620;2023-09-19T12:40:04;2.10;;;1.30;;
12367;SDS011;6248;49.812;6.620;2023-09-19T12:42:40;3.85;;;1.65;;
12367;SDS011;6248;49.812;6.620;2023-09-19T12:45:08;4.68;;;1.80;;
12367;SDS011;6248;49.812;6.620;2023-09-19T12:47:36;2.35;;;1.35;;
12367;SDS011;6248;49.812;6.620;2023-09-19T12:50:05;2.80;;;1.20;;
12367;SDS011;6248;49.812;6.620;2023-09-19T12:52:34;3.20;;;1.60;;
12367;SDS011;6248;49.812;6.620;2023-09-19T12:55:02;2.58;;;1.40;;
12367;SDS011;6248;49.812;6.620;2023-09-19T12:57:30;3.05;;;1.45;;
12367;SDS011;6248;49.812;6.620;2023-09-19T12:59:59;1.52;;;1.20;;
12367;SDS011;6248;49.812;6.620;2023-09-19T13:02:26;2.50;;;1.30;;
12367;SDS011;6248;49.812;6.620;2023-09-19T13:04:55;3.63;;;1.52;;
12367;SDS011;6248;49.812;6.620;2023-09-19T13:07:40;3.50;;;1.60;;
12367;SDS011;6248;49.812;6.620;2023-09-19T13:10:10;2.20;;;1.23;;
12367;SDS011;6248;49.812;6.620;2023-09-19T13:12:40;4.00;;;1.35;;
12367;SDS011;6248;49.812;6.620;2023-09-19T13:15:09;3.45;;;1.42;;
12367;SDS011;6248;49.812;6.620;2023-09-19T13:17:44;1.55;;;1.23;;
12367;SDS011;6248;49.812;6.620;2023-09-19T13:20:24;3.13;;;1.48;;
12367;SDS011;6248;49.812;6.620;2023-09-19T13:22:53;4.03;;;1.50;;
12367;SDS011;6248;49.812;6.620;2023-09-19T13:25:23;3.75;;;1.60;;
12367;SDS011;6248;49.812;6.620;2023-09-19T13:27:53;3.40;;;1.60;;
12367;SDS011;6248;49.812;6.620;2023-09-19T13:30:21;3.10;;;1.27;;
12367;SDS011;6248;49.812;6.620;2023-09-19T13:32:48;4.22;;;1.48;;
12367;SDS011;6248;49.812;6.620;2023-09-19T13:35:15;4.10;;;1.50;;
12367;SDS011;6248;49.812;6.620;2023-09-19T13:37:44;3.28;;;1.35;;
12367;SDS011;6248;49.812;6.620;2023-09-19T13:40:14;4.93;;;1.42;;
12367;SDS011;6248;49.812;6.620;2023-09-19T13:42:42;5.43;;;1.60;;
12367;SDS011;6248;49.812;6.620;2023-09-19T13:45:09;2.08;;;1.15;;
12367;SDS011;6248;49.812;6.620;2023-09-19T13:47:37;3.03;;;1.30;;
12367;SDS011;6248;49.812;6.620;2023-09-19T13:50:05;2.65;;;1.10;;
12367;SDS011;6248;49.812;6.620;2023-09-19T13:52:33;4.43;;;1.67;;
12367;SDS011;6248;49.812;6.620;2023-09-19T13:55:01;3.97;;;1.20;;
12367;SDS011;6248;49.812;6.620;2023-09-19T13:57:29;3.80;;;1.30;;
12367;SDS011;6248;49.812;6.620;2023-09-19T13:59:58;2.55;;;1.30;;
12367;SDS011;6248;49.812;6.620;2023-09-19T14:02:25;5.53;;;1.23;;
12367;SDS011;6248;49.812;6.620;2023-09-19T14:04:53;3.42;;;1.38;;
12367;SDS011;6248;49.812;6.620;2023-09-19T14:07:20;2.88;;;1.50;;
12367;SDS011;6248;49.812;6.620;2023-09-19T14:09:47;2.45;;;1.30;;
12367;SDS011;6248;49.812;6.620;2023-09-19T14:12:16;3.42;;;1.38;;
12367;SDS011;6248;49.812;6.620;2023-09-19T14:14:43;4.35;;;1.40;;
12367;SDS011;6248;49.812;6.620;2023-09-19T14:17:10;2.92;;;1.20;;
12367;SDS011;6248;49.812;6.620;2023-09-19T14:19:40;1.15;;;1.02;;
12367;SDS011;6248;49.812;6.620;2023-09-19T14:22:08;1.85;;;1.20;;
12367;SDS011;6248;49.812;6.620;2023-09-19T14:24:35;2.38;;;1.15;;
12367;SDS011;6248;49.812;6.620;2023-09-19T14:27:02;3.83;;;1.17;;
12367;SDS011;6248;49.812;6.620;2023-09-19T14:29:32;2.80;;;1.30;;
12367;SDS011;6248;49.812;6.620;2023-09-19T14:31:59;3.42;;;1.27;;
12367;SDS011;6248;49.812;6.620;2023-09-19T14:34:27;3.20;;;1.30;;
12367;SDS011;6248;49.812;6.620;2023-09-19T14:36:54;1.50;;;1.08;;
12367;SDS011;6248;49.812;6.620;2023-09-19T14:39:21;3.60;;;1.38;;
12367;SDS011;6248;49.812;6.620;2023-09-19T14:41:49;4.00;;;1.30;;
12367;SDS011;6248;49.812;6.620;2023-09-19T14:44:16;4.43;;;1.55;;
12367;SDS011;6248;49.812;6.620;2023-09-19T14:46:45;2.40;;;1.10;;
12367;SDS011;6248;49.812;6.620;2023-09-19T14:49:12;2.42;;;1.30;;
12367;SDS011;6248;49.812;6.620;2023-09-19T14:51:42;2.53;;;1.30;;
12367;SDS011;6248;49.812;6.620;2023-09-19T14:54:10;2.17;;;1.30;;
12367;SDS011;6248;49.812;6.620;2023-09-19T14:56:37;2.97;;;1.45;;
12367;SDS011;6248;49.812;6.620;2023-09-19T14:59:04;2.92;;;1.50;;
12367;SDS011;6248;49.812;6.620;2023-09-19T15:01:32;2.38;;;1.40;;
12367;SDS011;6248;49.812;6.620;2023-09-19T15:04:00;2.05;;;1.40;;
12367;SDS011;6248;49.812;6.620;2023-09-19T15:06:27;2.40;;;1.45;;
12367;SDS011;6248;49.812;6.620;2023-09-19T15:08:55;2.97;;;1.30;;
12367;SDS011;6248;49.812;6.620;2023-09-19T15:11:23;2.30;;;1.33;;
12367;SDS011;6248;49.812;6.620;2023-09-19T15:13:50;2.78;;;1.30;;
12367;SDS011;6248;49.812;6.620;2023-09-19T15:16:18;1.15;;;1.00;;
12367;SDS011;6248;49.812;6.620;2023-09-19T15:18:46;1.88;;;1.02;;
12367;SDS011;6248;49.812;6.620;2023-09-19T15:21:15;1.15;;;1.00;;
12367;SDS011;6248;49.812;6.620;2023-09-19T15:23:42;5.72;;;1.38;;
12367;SDS011;6248;49.812;6.620;2023-09-19T15:26:11;1.98;;;1.20;;
12367;SDS011;6248;49.812;6.620;2023-09-19T15:28:39;2.22;;;1.10;;
12367;SDS011;6248;49.812;6.620;2023-09-19T15:31:07;3.60;;;1.30;;